Ивня

СКИДКИ НА СМАРТФОНЫ!

Карта отелей и гостиниц, располагающихся рядом с аэропортом Ивня :

Ивня Белгородская область 51° 3' 28.4688" N, 36° 10' 37.3296" E
Ивня Белгородская область 51° 3' 28.4688" N, 36° 10' 37.3296" E
Код аэродрома ИКАО
HA9Y
Код аэродрома RU
ХА9Ы
Координаты
N51.05791° E036.17704°
Превышение над уровнем моря
230
Основная полоса
35/17
Курс магнитный
352,2/172,2
Длина основной ВПП
395
Ширина основной ВПП
18
Покрытие основной ВПП
Твёрдое
Освещение ВПП
Нет
Тип: 
Аэродром
Класс аэродрома: 
Принадлежность: 
ГА
Статус: 
Недействующий
Сайт: 
E-mail аэродрома: 
Страна: 
Россия
Регион: 
Белгородская область
Город: 
Дополнительная информация: 
Площадка АХР. ИВПП практически не существует.

Скидки на навигаторы!

Найти трансфер

С помощью этой формы Вы можете найти трансфер из аэропорта Ивня в город, аэропорт или вокзал:

Погода в аэропортах:

Авиационная погода в Яссах

Регион: 
Погода METAR: 
LRIA 072100Z 12003KT 0200 R14/0375N FG VV001 02/02 Q1015
Время наблюдения
2022-12-07T21:00:00Z
Температура C
2.0
Точка росы
2.0
Направление ветра
120
Скорость ветра (узлы)
3
Метео видимость
0.12
Облачность
OVX
Нижняя граница облачности (футы)
0
Явления погоды
FG
Условия полета
LIFR
FG – туман (небо не видно, температура воздуха выше нуля или ноль);

Авиационная погода в Брянске

Регион: 
Погода METAR: 
UUBP 072100Z AUTO 13005MPS 1900 SN ///004 M06/M08 Q1017 NOSIG RMK QFE745/0993
Время наблюдения
2022-12-07T21:00:00Z
Температура C
-6.0
Точка росы
-8.0
Направление ветра
130
Скорость ветра (узлы)
10
Метео видимость
1.18
Облачность
Нижняя граница облачности (футы)
Явления погоды
SN
Условия полета
Аэропорт подробнее: 
SN – снег;

Авиационная погода в Кишинёве

Регион: 
Погода METAR: 
LUKK 072100Z 25005KT 1300 0550S R08/P2000N BR PRFG FEW005 OVC082 03/03 Q1015 TEMPO 0300 FG VV002
Время наблюдения
2022-12-07T21:00:00Z
Температура C
3.0
Точка росы
3.0
Направление ветра
250
Скорость ветра (узлы)
5
Метео видимость
0.81
Облачность
FEW
OVC
Нижняя граница облачности (футы)
500
8200
Явления погоды
PRFG BR
Условия полета
LIFR
FEW – незначительная облачность; OVC – сплошная облачность;
PRFG - туман просвечивающий; BR – дымка (видимость от 1 до 9 км);

Авиационная погода в Храброво

Регион: 
Погода METAR: 
UMKK 072100Z 22005MPS 9999 -SHSNRA SCT007 BKN019CB 01/01 Q0998 RESHRA RESHSN R24/690295 NOSIG RMK QBB210 QFE748/0997
Время наблюдения
2022-12-07T21:00:00Z
Температура C
1.0
Точка росы
1.0
Направление ветра
220
Скорость ветра (узлы)
10
Метео видимость
6.21
Облачность
SCT
BKN
Нижняя граница облачности (футы)
700
1900
Явления погоды
-SHSN -SHRA SHSN
Условия полета
MVFR
Аэропорт подробнее: 
SCT – разбросанная отдельная облачность; BKN – значительная (рассеянная, разорванная) облачность;
-SHRA - слабый ливневой дождь; -SHSN - слабый ливневой снег;